Time;durP1;ratioP1;P1;durP2;ratioP2;P2;SDS_P1;SDS_P2;PMS_P1;PMS_P2;Temp;Humidity;BMP_temperature;BMP_pressure;BME280_temperature;BME280_humidity;BME280_pressure;Samples;Min_cycle;Max_cycle;Signal;HPM_P1;HPM_P2
2022/02/25 00:01:29;;;;;;;4.93;1.50;;;3.20;99.90;;;;;;5027309;28;20287;-55
2022/02/25 00:03:56;;;;;;;5.60;1.80;;;3.10;99.90;;;;;;5022141;28;20209;-56
2022/02/25 00:06:22;;;;;;;4.70;1.40;;;3.10;99.90;;;;;;5019595;28;20210;-56
2022/02/25 00:08:49;;;;;;;5.33;1.40;;;3.10;99.90;;;;;;5017381;28;20446;-57
2022/02/25 00:11:18;;;;;;;3.93;1.93;;;3.10;99.90;;;;;;5016646;28;20232;-57
2022/02/25 00:13:45;;;;;;;5.33;1.97;;;3.00;99.90;;;;;;5018286;28;20223;-57
2022/02/25 00:16:12;;;;;;;6.00;1.80;;;3.00;99.90;;;;;;5016284;28;20203;-57
2022/02/25 00:18:39;;;;;;;5.87;2.10;;;2.90;99.90;;;;;;5017825;28;20280;-57
2022/02/25 00:21:06;;;;;;;6.30;1.60;;;3.00;99.90;;;;;;5017766;28;20268;-57
2022/02/25 00:23:33;;;;;;;2.63;1.63;;;2.90;99.90;;;;;;5025057;28;20212;-57
2022/02/25 00:26:00;;;;;;;3.03;1.50;;;2.90;99.90;;;;;;5023207;28;20209;-57
2022/02/25 00:28:27;;;;;;;5.03;1.60;;;3.00;99.90;;;;;;5020438;28;20255;-57
2022/02/25 00:30:54;;;;;;;6.47;1.70;;;2.90;99.90;;;;;;5026039;28;20287;-57
2022/02/25 00:33:21;;;;;;;5.53;1.80;;;2.90;99.90;;;;;;5024531;28;20686;-56
2022/02/25 00:35:51;;;;;;;5.80;2.10;;;2.90;99.90;;;;;;5021545;28;20898;-57
2022/02/25 00:38:19;;;;;;;5.23;2.13;;;2.90;99.90;;;;;;5021771;28;20520;-57
2022/02/25 00:40:46;;;;;;;3.47;2.03;;;3.00;99.90;;;;;;5019395;28;20211;-57
2022/02/25 00:43:14;;;;;;;6.10;1.93;;;3.10;99.90;;;;;;5039231;28;20309;-57
2022/02/25 00:45:40;;;;;;;5.07;1.70;;;3.10;99.90;;;;;;5017568;28;20662;-57
2022/02/25 00:48:07;;;;;;;5.40;1.93;;;3.00;99.90;;;;;;5020793;28;20695;-57
2022/02/25 00:50:34;;;;;;;7.13;1.73;;;3.00;99.90;;;;;;5020068;28;20740;-57
2022/02/25 00:53:01;;;;;;;8.33;2.40;;;3.00;99.90;;;;;;5021741;28;20305;-57
2022/02/25 00:55:28;;;;;;;6.33;2.33;;;3.00;99.90;;;;;;5023548;28;20200;-57
2022/02/25 00:57:57;;;;;;;5.57;3.07;;;3.00;99.90;;;;;;5029565;28;20217;-57
2022/02/25 01:00:26;;;;;;;4.83;2.10;;;3.00;99.90;;;;;;4991441;28;1080900;-57
2022/02/25 01:02:56;;;;;;;6.50;2.33;;;3.00;99.90;;;;;;5026865;28;20197;-57
2022/02/25 01:05:23;;;;;;;9.67;2.83;;;3.00;99.90;;;;;;5021581;28;20604;-57
2022/02/25 01:07:50;;;;;;;3.03;1.90;;;2.90;99.90;;;;;;5020565;28;20610;-58
2022/02/25 01:10:18;;;;;;;7.47;2.63;;;2.90;99.90;;;;;;5018270;28;20259;-58
2022/02/25 01:12:46;;;;;;;5.80;2.20;;;2.90;99.90;;;;;;5016657;28;20708;-58
2022/02/25 01:15:15;;;;;;;8.60;3.07;;;3.00;99.90;;;;;;5020133;28;20452;-57
2022/02/25 01:17:42;;;;;;;6.03;3.00;;;3.00;99.90;;;;;;5001170;28;20304;-57
2022/02/25 01:20:10;;;;;;;3.33;2.30;;;3.00;99.90;;;;;;5011228;28;20862;-56
2022/02/25 01:22:37;;;;;;;3.57;2.20;;;3.00;99.90;;;;;;5018960;28;20528;-57
2022/02/25 01:25:05;;;;;;;5.10;2.43;;;3.00;99.90;;;;;;5018275;28;20356;-58
2022/02/25 01:27:32;;;;;;;7.90;2.47;;;2.90;99.90;;;;;;5018525;28;20662;-57
2022/02/25 01:29:59;;;;;;;8.23;2.90;;;2.90;99.90;;;;;;5017637;28;20303;-57
2022/02/25 01:32:26;;;;;;;5.70;2.27;;;2.90;99.90;;;;;;5018412;28;21766;-57
2022/02/25 01:34:53;;;;;;;5.23;2.43;;;2.90;99.90;;;;;;5012990;28;20253;-58
2022/02/25 01:37:19;;;;;;;2.27;1.90;;;2.90;99.90;;;;;;5020863;28;20294;-58
2022/02/25 01:39:46;;;;;;;3.77;2.50;;;2.90;99.90;;;;;;5021217;28;20300;-57
2022/02/25 01:42:13;;;;;;;3.73;2.13;;;2.90;99.90;;;;;;5022591;28;20408;-57
2022/02/25 01:44:41;;;;;;;4.40;2.87;;;2.90;99.90;;;;;;5018268;28;20212;-58
2022/02/25 01:47:09;;;;;;;4.63;2.40;;;2.90;99.90;;;;;;5018861;28;20213;-56
2022/02/25 01:49:36;;;;;;;3.83;2.83;;;2.90;99.90;;;;;;5016607;28;20294;-58
2022/02/25 01:52:06;;;;;;;3.87;2.10;;;2.90;99.90;;;;;;5018269;28;20305;-57
2022/02/25 01:54:33;;;;;;;4.73;2.10;;;2.90;99.90;;;;;;5020009;28;20522;-57
2022/02/25 01:57:01;;;;;;;4.30;2.07;;;2.90;99.90;;;;;;5021412;28;20318;-57
2022/02/25 01:59:30;;;;;;;4.50;2.00;;;2.80;99.90;;;;;;5019740;28;20319;-55
2022/02/25 02:01:58;;;;;;;5.40;2.10;;;2.80;99.90;;;;;;5019317;28;20685;-58
2022/02/25 02:04:25;;;;;;;5.23;1.73;;;2.80;99.90;;;;;;5019487;28;20777;-57
2022/02/25 02:06:53;;;;;;;4.80;2.07;;;2.80;99.90;;;;;;5017787;28;20232;-58
2022/02/25 02:09:20;;;;;;;7.00;2.20;;;2.80;99.90;;;;;;5011647;28;20224;-57
2022/02/25 02:11:50;;;;;;;5.07;2.10;;;2.80;99.90;;;;;;5019732;28;20201;-57
2022/02/25 02:14:19;;;;;;;3.80;2.10;;;2.80;99.90;;;;;;5017218;28;20307;-56
2022/02/25 02:16:50;;;;;;;5.13;2.30;;;2.90;99.90;;;;;;5017553;28;20564;-58
2022/02/25 02:19:18;;;;;;;3.40;1.70;;;2.90;99.90;;;;;;5005797;28;20307;-58
2022/02/25 02:21:53;;;;;;;3.50;2.30;;;2.80;99.90;;;;;;5018027;28;20200;-57
2022/02/25 02:24:22;;;;;;;4.77;2.00;;;2.90;99.90;;;;;;5013574;28;21509;-58
2022/02/25 02:26:51;;;;;;;8.20;2.03;;;2.80;99.90;;;;;;5019425;28;20299;-56
2022/02/25 02:29:18;;;;;;;3.57;1.93;;;2.90;99.90;;;;;;5015860;28;20271;-56
2022/02/25 02:31:45;;;;;;;4.30;1.70;;;2.90;99.90;;;;;;5017452;28;21063;-56
2022/02/25 02:34:15;;;;;;;7.80;2.10;;;2.90;99.90;;;;;;5014480;28;20724;-56
2022/02/25 02:36:42;;;;;;;3.13;2.43;;;2.90;99.90;;;;;;5018333;28;20693;-56
2022/02/25 02:39:11;;;;;;;7.37;1.87;;;2.90;99.90;;;;;;5012315;28;20201;-58
2022/02/25 02:41:38;;;;;;;5.10;1.93;;;2.90;99.90;;;;;;5020441;28;20523;-58
2022/02/25 02:44:06;;;;;;;6.83;2.83;;;2.80;99.90;;;;;;5004687;28;20632;-57
2022/02/25 02:46:34;;;;;;;4.97;2.03;;;2.90;99.90;;;;;;5014526;28;20619;-57
2022/02/25 02:49:04;;;;;;;9.50;2.20;;;2.90;99.90;;;;;;5014507;28;20201;-57
2022/02/25 02:51:31;;;;;;;6.83;2.07;;;2.80;99.90;;;;;;5008637;28;20595;-57
2022/02/25 02:53:58;;;;;;;4.53;2.30;;;2.80;99.90;;;;;;5014401;28;21629;-56
2022/02/25 02:56:26;;;;;;;2.73;1.60;;;2.80;99.90;;;;;;5017462;28;20606;-56
2022/02/25 02:58:56;;;;;;;5.00;2.83;;;2.80;99.90;;;;;;5013602;28;20364;-56
2022/02/25 03:01:27;;;;;;;4.93;1.93;;;2.80;99.90;;;;;;5013340;28;20323;-56
2022/02/25 03:03:54;;;;;;;8.13;2.87;;;2.70;99.90;;;;;;5010923;28;20295;-56
2022/02/25 03:06:23;;;;;;;5.27;2.07;;;2.80;99.90;;;;;;5017585;28;20669;-57
2022/02/25 03:08:50;;;;;;;5.60;1.77;;;2.70;99.90;;;;;;5013082;28;20216;-57
2022/02/25 03:11:16;;;;;;;6.23;1.87;;;2.70;99.90;;;;;;5014322;28;20250;-57
2022/02/25 03:13:43;;;;;;;9.73;2.27;;;2.70;99.90;;;;;;5017344;28;20272;-57
2022/02/25 03:16:10;;;;;;;4.93;1.90;;;2.60;99.90;;;;;;5013129;28;20309;-56
2022/02/25 03:18:37;;;;;;;7.57;1.90;;;2.60;99.90;;;;;;5008081;28;20687;-58
2022/02/25 03:21:05;;;;;;;4.33;1.93;;;2.60;99.90;;;;;;5015755;28;20600;-57
2022/02/25 03:23:31;;;;;;;7.23;2.93;;;2.60;99.90;;;;;;5017919;28;20283;-57
2022/02/25 03:25:58;;;;;;;3.80;1.53;;;2.60;99.90;;;;;;5014148;28;21240;-55
2022/02/25 03:28:27;;;;;;;5.37;1.97;;;2.60;99.90;;;;;;5015021;28;20818;-57
2022/02/25 03:30:53;;;;;;;3.03;2.00;;;2.60;99.90;;;;;;5015081;28;20257;-56
2022/02/25 03:33:20;;;;;;;6.17;1.53;;;2.60;99.90;;;;;;5011910;28;20288;-54
2022/02/25 03:35:47;;;;;;;6.00;2.00;;;2.60;99.90;;;;;;5010559;28;20782;-54
2022/02/25 03:38:15;;;;;;;6.83;2.13;;;2.60;99.90;;;;;;5019493;28;20200;-53
2022/02/25 03:40:42;;;;;;;7.47;2.10;;;2.60;99.90;;;;;;5018620;28;20212;-53
2022/02/25 03:43:10;;;;;;;3.47;1.87;;;2.60;99.90;;;;;;5019531;28;20273;-54
2022/02/25 03:45:37;;;;;;;7.20;1.80;;;2.60;99.90;;;;;;5015610;28;20216;-56
2022/02/25 03:48:04;;;;;;;5.73;1.80;;;2.60;99.90;;;;;;5017740;28;20232;-56
2022/02/25 03:50:31;;;;;;;10.70;2.10;;;2.60;99.90;;;;;;5016092;28;20266;-54
2022/02/25 03:52:58;;;;;;;9.70;1.83;;;2.60;99.90;;;;;;5019530;28;20943;-58
2022/02/25 03:55:25;;;;;;;8.20;2.47;;;2.70;99.90;;;;;;5018816;28;20539;-54
2022/02/25 03:57:52;;;;;;;10.60;2.03;;;2.70;99.90;;;;;;5019224;28;20411;-54
2022/02/25 04:00:19;;;;;;;6.67;2.30;;;2.60;99.90;;;;;;5014299;28;20320;-52
2022/02/25 04:02:46;;;;;;;5.03;2.20;;;2.70;99.90;;;;;;5017681;28;20597;-58
2022/02/25 04:05:13;;;;;;;8.87;2.13;;;2.70;99.90;;;;;;5017521;28;20208;-54
2022/02/25 04:07:41;;;;;;;6.80;1.87;;;2.70;99.90;;;;;;5015373;28;20634;-55
2022/02/25 04:10:12;;;;;;;5.60;2.03;;;2.70;99.90;;;;;;5019115;28;20584;-58
2022/02/25 04:12:40;;;;;;;7.70;1.87;;;2.70;99.90;;;;;;5018198;28;20301;-57
2022/02/25 04:15:08;;;;;;;7.27;1.70;;;2.70;99.90;;;;;;5017045;28;20270;-55
2022/02/25 04:17:35;;;;;;;12.97;2.60;;;2.70;99.90;;;;;;5014971;28;20304;-57
2022/02/25 04:20:03;;;;;;;7.43;2.00;;;2.80;99.90;;;;;;5013076;28;20287;-56
2022/02/25 04:22:30;;;;;;;7.10;1.97;;;2.80;99.90;;;;;;5017696;28;20196;-56
2022/02/25 04:24:57;;;;;;;6.17;1.80;;;2.80;99.90;;;;;;5017030;28;20340;-55
2022/02/25 04:27:24;;;;;;;7.50;2.03;;;2.80;99.90;;;;;;5017758;28;20232;-56
2022/02/25 04:29:50;;;;;;;7.00;1.70;;;2.80;99.90;;;;;;5014829;28;20207;-56
2022/02/25 04:32:18;;;;;;;6.00;1.90;;;2.80;99.90;;;;;;5011066;28;20712;-55
2022/02/25 04:34:45;;;;;;;6.40;2.30;;;2.80;99.90;;;;;;5016479;28;20732;-55
2022/02/25 04:37:12;;;;;;;6.63;1.70;;;2.80;99.90;;;;;;5018345;28;20292;-55
2022/02/25 04:39:39;;;;;;;4.27;2.13;;;2.80;99.90;;;;;;5018087;28;20678;-55
2022/02/25 04:42:06;;;;;;;7.57;2.10;;;2.80;99.90;;;;;;5016813;28;20201;-54
2022/02/25 04:44:35;;;;;;;10.07;2.07;;;2.70;99.90;;;;;;5017163;28;20311;-55
2022/02/25 04:47:02;;;;;;;10.00;2.60;;;2.70;99.90;;;;;;5011778;28;20205;-55
2022/02/25 04:49:29;;;;;;;6.43;2.33;;;2.70;99.90;;;;;;5013695;28;20295;-55
2022/02/25 04:51:56;;;;;;;6.93;2.50;;;2.80;99.90;;;;;;5017125;28;20543;-55
2022/02/25 04:54:23;;;;;;;7.50;1.80;;;2.80;99.90;;;;;;5019828;28;20312;-57
2022/02/25 04:56:49;;;;;;;12.37;1.80;;;2.80;99.90;;;;;;5017495;28;20209;-55
2022/02/25 04:59:16;;;;;;;6.13;2.00;;;2.80;99.90;;;;;;5015256;28;20237;-54
2022/02/25 05:01:46;;;;;;;5.73;2.10;;;2.80;99.90;;;;;;5010868;28;20657;-56
2022/02/25 05:04:13;;;;;;;2.87;1.80;;;2.80;99.90;;;;;;5015398;28;20413;-60
2022/02/25 05:06:41;;;;;;;12.23;1.97;;;2.90;99.90;;;;;;5016334;28;20667;-55
2022/02/25 05:09:08;;;;;;;9.17;2.23;;;2.90;99.90;;;;;;5017568;28;20233;-56
2022/02/25 05:11:34;;;;;;;7.23;1.70;;;2.90;99.90;;;;;;5011528;28;20208;-55
2022/02/25 05:14:02;;;;;;;7.53;2.87;;;2.90;99.90;;;;;;5019576;28;20669;-56
2022/02/25 05:22:00;;;;;;;12.03;2.67;;;2.90;99.90;;;;;;5020660;28;20219;-55
2022/02/25 05:24:26;;;;;;;5.73;2.63;;;3.00;99.90;;;;;;5017634;28;20256;-54
2022/02/25 05:26:54;;;;;;;11.47;2.10;;;3.10;99.90;;;;;;5018826;28;20209;-57
2022/02/25 05:29:21;;;;;;;7.80;2.47;;;3.10;99.90;;;;;;5017443;28;20385;-56
2022/02/25 05:31:48;;;;;;;9.40;2.27;;;3.10;99.90;;;;;;5015291;28;20616;-54
2022/02/25 05:34:15;;;;;;;9.50;2.00;;;3.20;99.90;;;;;;5013043;28;20224;-55
2022/02/25 05:36:41;;;;;;;8.13;2.30;;;3.20;99.90;;;;;;5014779;28;20193;-57
2022/02/25 05:39:08;;;;;;;8.43;2.40;;;3.20;99.90;;;;;;5015288;28;20205;-55
2022/02/25 05:41:35;;;;;;;9.60;1.87;;;3.30;99.90;;;;;;5015398;28;20635;-53
2022/02/25 05:44:02;;;;;;;9.23;2.00;;;3.30;99.90;;;;;;5017273;28;20201;-53
2022/02/25 05:46:29;;;;;;;11.80;1.83;;;3.30;99.90;;;;;;5012661;28;20994;-54
2022/02/25 05:48:56;;;;;;;8.67;2.30;;;3.40;99.90;;;;;;5013938;28;20203;-55
2022/02/25 05:51:23;;;;;;;12.50;2.73;;;3.40;99.90;;;;;;5015050;28;20308;-54
2022/02/25 05:53:53;;;;;;;5.40;1.83;;;3.40;99.90;;;;;;5017463;28;20794;-56
2022/02/25 05:56:20;;;;;;;12.70;2.37;;;3.40;99.90;;;;;;5014937;28;20232;-53
2022/02/25 05:58:46;;;;;;;7.83;1.60;;;3.40;99.90;;;;;;5016893;28;20390;-54
2022/02/25 06:01:13;;;;;;;7.93;2.33;;;3.50;99.90;;;;;;5007922;28;20272;-54
2022/02/25 06:03:40;;;;;;;6.33;2.37;;;3.50;99.90;;;;;;5015559;28;20209;-55
2022/02/25 06:06:07;;;;;;;9.00;1.90;;;3.50;99.90;;;;;;5015397;28;20292;-54
2022/02/25 06:08:34;;;;;;;9.77;3.80;;;3.50;99.90;;;;;;5000505;28;20282;-54
2022/02/25 06:11:02;;;;;;;4.00;1.77;;;3.50;99.90;;;;;;5016871;28;21301;-58
2022/02/25 06:13:29;;;;;;;8.90;2.00;;;3.50;99.90;;;;;;5017222;28;20204;-55
2022/02/25 06:15:58;;;;;;;12.40;2.40;;;3.50;99.90;;;;;;5015804;28;20246;-57
2022/02/25 06:18:25;;;;;;;8.87;2.00;;;3.60;99.90;;;;;;5012913;28;20296;-55
2022/02/25 06:20:52;;;;;;;6.90;1.73;;;3.60;99.90;;;;;;5010499;28;20626;-55
2022/02/25 06:23:21;;;;;;;10.13;1.93;;;3.60;99.90;;;;;;5017604;28;20593;-55
2022/02/25 06:25:49;;;;;;;12.23;2.60;;;3.60;99.90;;;;;;5014446;28;20201;-55
2022/02/25 06:28:15;;;;;;;9.70;2.13;;;3.70;99.90;;;;;;5016459;28;20212;-55
2022/02/25 06:30:42;;;;;;;6.70;2.03;;;3.70;99.90;;;;;;5003949;28;20305;-55
2022/02/25 06:33:09;;;;;;;7.83;2.07;;;3.70;99.90;;;;;;5013639;28;20658;-55
2022/02/25 06:35:36;;;;;;;7.97;1.67;;;3.70;99.90;;;;;;5017092;28;20215;-54
2022/02/25 06:38:04;;;;;;;11.47;2.30;;;3.70;99.90;;;;;;5012659;28;20883;-55
2022/02/25 06:40:31;;;;;;;7.80;1.93;;;3.80;99.90;;;;;;5014506;28;20250;-54
2022/02/25 06:42:57;;;;;;;8.10;2.53;;;3.70;99.90;;;;;;5017169;28;20555;-55
2022/02/25 06:45:25;;;;;;;12.20;2.10;;;3.90;99.90;;;;;;5018211;28;20225;-58
2022/02/25 06:47:52;;;;;;;11.47;2.63;;;4.00;99.90;;;;;;5015807;28;20205;-55
2022/02/25 06:50:19;;;;;;;7.90;2.07;;;4.00;99.90;;;;;;5016007;28;20757;-56
2022/02/25 06:52:47;;;;;;;12.37;2.67;;;4.00;99.90;;;;;;5011302;28;20212;-55
2022/02/25 06:55:16;;;;;;;6.97;2.50;;;3.90;99.90;;;;;;5016911;28;20246;-55
2022/02/25 06:58:02;;;;;;;15.50;2.83;;;3.90;99.90;;;;;;5010562;28;20698;-55
2022/02/25 07:00:29;;;;;;;8.37;2.20;;;4.00;99.90;;;;;;5008491;28;20829;-53
2022/02/25 07:02:57;;;;;;;8.90;1.93;;;4.10;99.90;;;;;;5012442;28;20323;-56
2022/02/25 07:05:25;;;;;;;7.53;2.43;;;4.10;99.90;;;;;;5013534;28;20203;-55
2022/02/25 07:07:54;;;;;;;10.20;2.97;;;4.20;99.90;;;;;;5011326;28;20205;-56
2022/02/25 07:10:27;;;;;;;11.77;2.70;;;4.30;99.90;;;;;;5011605;28;20317;-54
2022/02/25 07:12:54;;;;;;;4.30;1.67;;;4.30;99.90;;;;;;5013039;28;20216;-57
2022/02/25 07:15:21;;;;;;;16.17;4.13;;;4.30;99.90;;;;;;5015890;28;20714;-53
2022/02/25 07:17:48;;;;;;;8.40;2.20;;;4.40;99.90;;;;;;5013421;28;20249;-53
2022/02/25 07:20:16;;;;;;;11.13;2.03;;;4.40;99.90;;;;;;5020622;28;20279;-55
2022/02/25 07:22:46;;;;;;;11.43;2.10;;;4.40;99.90;;;;;;5019061;28;20203;-54
2022/02/25 07:25:14;;;;;;;12.23;2.23;;;4.40;99.90;;;;;;5017214;28;20205;-53
2022/02/25 07:27:41;;;;;;;12.83;2.10;;;4.40;99.90;;;;;;5019618;28;20300;-54
2022/02/25 07:30:10;;;;;;;7.10;2.13;;;4.50;99.90;;;;;;5014800;28;20883;-55
2022/02/25 07:32:37;;;;;;;11.93;2.03;;;4.50;99.90;;;;;;5017443;28;20204;-54
2022/02/25 07:35:06;;;;;;;10.63;2.33;;;4.50;99.90;;;;;;5009952;28;20217;-53
2022/02/25 07:37:34;;;;;;;6.37;2.20;;;4.50;99.90;;;;;;5016264;28;20198;-53
2022/02/25 07:40:01;;;;;;;9.03;2.13;;;4.60;99.90;;;;;;5020735;28;20288;-53
2022/02/25 07:42:29;;;;;;;7.00;2.13;;;4.80;99.90;;;;;;5021462;28;20624;-55
2022/02/25 07:44:56;;;;;;;9.13;2.50;;;4.90;99.90;;;;;;5020391;28;20220;-54
2022/02/25 07:47:24;;;;;;;8.80;2.47;;;5.00;99.90;;;;;;5017069;28;20205;-57
2022/02/25 07:49:52;;;;;;;13.27;2.77;;;5.30;99.90;;;;;;5018757;28;20197;-55
2022/02/25 07:52:21;;;;;;;7.97;1.80;;;5.40;99.90;;;;;;5021907;28;20264;-55
2022/02/25 07:54:49;;;;;;;8.47;2.10;;;5.40;99.90;;;;;;5017303;28;20318;-55
2022/02/25 07:57:16;;;;;;;11.60;2.33;;;5.50;99.90;;;;;;5016948;28;20217;-55
2022/02/25 07:59:42;;;;;;;8.47;1.83;;;5.70;99.90;;;;;;5016497;28;20232;-56
2022/02/25 08:02:09;;;;;;;10.50;2.23;;;5.70;99.90;;;;;;5018682;28;20324;-54
2022/02/25 08:04:37;;;;;;;12.80;2.43;;;5.70;99.90;;;;;;5013353;28;20561;-54
2022/02/25 08:07:23;;;;;;;12.20;2.10;;;5.90;99.90;;;;;;5013027;28;20228;-54
2022/02/25 08:09:50;;;;;;;10.97;2.00;;;6.40;99.90;;;;;;5014121;28;20600;-52
2022/02/25 08:12:18;;;;;;;12.13;2.50;;;6.30;99.90;;;;;;5030905;28;20272;-56
2022/02/25 08:14:45;;;;;;;8.43;2.13;;;6.40;99.90;;;;;;5015822;28;20305;-55
2022/02/25 08:17:11;;;;;;;15.53;2.63;;;6.40;99.90;;;;;;5011564;28;20212;-53
2022/02/25 08:19:39;;;;;;;8.80;2.47;;;6.40;99.90;;;;;;5014820;28;20292;-55
2022/02/25 08:22:05;;;;;;;5.57;1.67;;;6.30;99.90;;;;;;5023115;28;20765;-54
2022/02/25 08:24:32;;;;;;;13.30;2.73;;;6.40;99.90;;;;;;5019712;28;20210;-55
2022/02/25 08:26:59;;;;;;;16.03;2.23;;;6.70;99.90;;;;;;5013202;28;20754;-54
2022/02/25 08:29:26;;;;;;;11.10;2.40;;;7.00;1.00;;;;;;5012649;28;20707;-54
2022/02/25 08:31:53;;;;;;;9.87;2.37;;;7.10;1.00;;;;;;5020275;28;20238;-55
2022/02/25 08:34:20;;;;;;;17.20;2.53;;;7.40;1.00;;;;;;5021798;28;20209;-54
2022/02/25 08:36:48;;;;;;;9.47;1.90;;;7.70;1.00;;;;;;5018305;28;20247;-54
2022/02/25 08:39:14;;;;;;;10.53;2.20;;;8.10;1.00;;;;;;5021109;28;20336;-54
2022/02/25 08:41:45;;;;;;;14.00;1.87;;;8.30;1.00;;;;;;5024123;28;20832;-55
2022/02/25 08:44:11;;;;;;;13.43;2.33;;;8.60;1.00;;;;;;5032985;28;20297;-55
2022/02/25 08:46:38;;;;;;;12.37;2.07;;;8.20;1.00;;;;;;5036568;28;20555;-55
2022/02/25 08:49:05;;;;;;;11.07;2.00;;;8.00;1.00;;;;;;5034771;28;20267;-55
2022/02/25 08:51:32;;;;;;;9.97;1.70;;;7.60;1.00;;;;;;5031615;28;20666;-55
2022/02/25 08:54:00;;;;;;;13.17;2.70;;;7.60;1.00;;;;;;5034962;28;20574;-54
2022/02/25 08:56:27;;;;;;;13.17;2.40;;;7.60;1.00;;;;;;5034082;28;20758;-54
2022/02/25 08:58:54;;;;;;;8.93;2.13;;;7.50;1.00;;;;;;5033875;28;20612;-55
2022/02/25 09:01:22;;;;;;;7.37;1.77;;;7.80;1.00;;;;;;5032220;28;20232;-55
2022/02/25 09:03:50;;;;;;;9.70;1.90;;;8.10;1.00;;;;;;5032235;28;20217;-56
2022/02/25 09:06:17;;;;;;;14.43;2.33;;;8.20;1.00;;;;;;5033203;28;20870;-54
2022/02/25 09:08:44;;;;;;;8.80;2.20;;;8.10;1.00;;;;;;5034738;28;20208;-53
2022/02/25 09:11:11;;;;;;;12.10;2.10;;;8.20;1.00;;;;;;5030704;28;20647;-54
2022/02/25 09:13:39;;;;;;;6.70;1.67;;;8.60;1.00;;;;;;5033765;28;20906;-56
2022/02/25 09:16:08;;;;;;;8.83;1.83;;;8.80;1.00;;;;;;5036118;28;20232;-56
2022/02/25 09:18:35;;;;;;;5.77;1.87;;;8.60;1.00;;;;;;5032442;28;20286;-56
2022/02/25 09:21:02;;;;;;;9.70;2.00;;;8.40;1.00;;;;;;5033718;28;20240;-58
2022/02/25 09:23:29;;;;;;;16.23;1.90;;;8.20;1.00;;;;;;5035351;28;20240;-57
2022/02/25 09:25:56;;;;;;;10.47;1.90;;;8.10;1.00;;;;;;5033730;28;20687;-57
2022/02/25 09:28:24;;;;;;;10.60;2.53;;;8.30;1.00;;;;;;5035169;28;20215;-57
2022/02/25 09:30:52;;;;;;;5.23;1.07;;;8.10;1.00;;;;;;5032928;28;20576;-57
2022/02/25 09:33:19;;;;;;;7.60;1.90;;;8.00;1.00;;;;;;5032290;28;20211;-57
2022/02/25 09:35:46;;;;;;;12.50;2.43;;;7.80;1.00;;;;;;5025233;28;20235;-57
2022/02/25 09:38:13;;;;;;;6.03;1.93;;;7.50;1.00;;;;;;5013455;28;20219;-58
2022/02/25 09:40:41;;;;;;;8.43;1.90;;;7.40;1.00;;;;;;5012632;28;20250;-57
2022/02/25 09:43:08;;;;;;;5.63;2.17;;;7.40;1.00;;;;;;4998022;28;20664;-57
2022/02/25 09:45:36;;;;;;;10.23;2.53;;;7.50;1.00;;;;;;5015250;28;20211;-57
2022/02/25 09:48:06;;;;;;;11.20;2.10;;;8.10;1.00;;;;;;5019273;28;20643;-56
2022/02/25 09:50:33;;;;;;;10.17;1.77;;;8.60;1.00;;;;;;5017615;28;20205;-56
2022/02/25 09:53:00;;;;;;;7.63;1.67;;;9.00;1.00;;;;;;5021519;28;20285;-57
2022/02/25 09:55:30;;;;;;;7.10;1.70;;;8.70;1.00;;;;;;5013840;28;20340;-57
2022/02/25 09:58:00;;;;;;;11.87;2.70;;;8.70;1.00;;;;;;5020681;28;20559;-57
2022/02/25 10:00:28;;;;;;;6.73;1.60;;;8.90;1.00;;;;;;5022426;28;20274;-57
2022/02/25 10:02:58;;;;;;;9.93;1.97;;;9.30;1.00;;;;;;5015552;28;20240;-57
2022/02/25 10:05:27;;;;;;;18.17;2.10;;;8.80;1.00;;;;;;5019700;28;20207;-58
2022/02/25 10:08:05;;;;;;;8.93;1.93;;;8.40;1.00;;;;;;5013176;28;20207;-57
2022/02/25 10:10:42;;;;;;;9.90;2.30;;;8.20;1.00;;;;;;5017292;28;20227;-57
2022/02/25 10:13:09;;;;;;;9.53;1.97;;;8.10;1.00;;;;;;5038125;28;20288;-59
2022/02/25 10:15:39;;;;;;;15.23;2.97;;;8.30;1.00;;;;;;5014823;28;20235;-58
2022/02/25 10:18:11;;;;;;;12.40;2.70;;;8.20;1.00;;;;;;5014391;28;20788;-58
2022/02/25 10:20:39;;;;;;;7.90;1.97;;;8.10;1.00;;;;;;5016029;28;20656;-62
2022/02/25 10:23:23;;;;;;;11.80;2.17;;;7.70;1.00;;;;;;5007030;28;20208;-55
2022/02/25 10:25:51;;;;;;;7.43;1.93;;;7.80;1.00;;;;;;5026971;28;20227;-55
2022/02/25 10:28:30;;;;;;;5.37;1.60;;;7.50;1.00;;;;;;5018490;28;20579;-55
2022/02/25 10:31:22;;;;;;;11.97;2.03;;;7.30;30.00;;;;;;5023615;28;20669;-56
2022/02/25 10:34:04;;;;;;;12.73;1.97;;;7.20;76.20;;;;;;5019654;28;20196;-60
2022/02/25 10:36:44;;;;;;;18.63;2.83;;;7.20;89.40;;;;;;5013722;28;20654;-58
2022/02/25 10:39:24;;;;;;;10.37;2.37;;;7.20;79.60;;;;;;5019086;28;20205;-59
2022/02/25 10:42:06;;;;;;;8.93;1.93;;;7.30;99.90;;;;;;5021578;28;20200;-56
2022/02/25 10:45:00;;;;;;;8.87;2.10;;;7.40;99.90;;;;;;5021714;28;20650;-57
2022/02/25 10:47:30;;;;;;;5.80;1.30;;;7.50;99.90;;;;;;5020919;28;20245;-56
2022/02/25 10:50:04;;;;;;;6.57;1.90;;;7.60;12.40;;;;;;5020755;28;20238;-56
2022/02/25 10:52:45;;;;;;;9.10;2.10;;;7.60;1.70;;;;;;5025860;28;20702;-57
2022/02/25 10:55:18;;;;;;;6.53;2.00;;;7.60;1.00;;;;;;5025253;28;20216;-56
2022/02/25 10:57:46;;;;;;;9.07;2.43;;;7.80;1.00;;;;;;5021199;28;20249;-57
2022/02/25 11:00:16;;;;;;;7.13;1.60;;;8.10;1.00;;;;;;5015944;28;20311;-57
2022/02/25 11:03:00;;;;;;;10.13;2.37;;;8.20;1.00;;;;;;5023173;28;20772;-56
2022/02/25 11:05:33;;;;;;;5.73;1.80;;;8.10;1.00;;;;;;5024434;28;20573;-56
2022/02/25 11:08:03;;;;;;;7.97;1.67;;;7.80;1.00;;;;;;5019331;28;20208;-56
2022/02/25 11:10:32;;;;;;;6.57;1.87;;;7.90;1.00;;;;;;5025944;28;20605;-56
2022/02/25 11:13:04;;;;;;;5.93;1.53;;;8.10;1.00;;;;;;5024215;28;20198;-55
2022/02/25 11:15:33;;;;;;;8.53;1.70;;;8.30;1.00;;;;;;5026570;28;20281;-56
2022/02/25 11:18:00;;;;;;;9.63;1.80;;;8.70;1.00;;;;;;5022811;28;21284;-56
2022/02/25 11:20:36;;;;;;;10.93;2.10;;;8.80;1.00;;;;;;5017801;28;20668;-56
2022/02/25 11:23:06;;;;;;;11.70;2.13;;;9.30;1.00;;;;;;5024217;28;20295;-56
2022/02/25 11:25:34;;;;;;;8.63;2.30;;;9.40;1.00;;;;;;5019663;28;20265;-55
2022/02/25 11:28:02;;;;;;;10.10;3.03;;;9.40;1.00;;;;;;5020959;28;20271;-58
2022/02/25 11:31:02;;;;;;;4.90;1.40;;;9.70;1.00;;;;;;5021992;28;20314;-58
2022/02/25 11:33:30;;;;;;;6.40;1.87;;;9.60;1.00;;;;;;5021662;28;20616;-57
2022/02/25 11:36:05;;;;;;;8.03;2.40;;;9.60;1.00;;;;;;5017262;28;20300;-58
2022/02/25 11:38:42;;;;;;;9.57;2.00;;;9.70;1.00;;;;;;5021430;28;20208;-58
2022/02/25 11:41:18;;;;;;;5.50;1.70;;;10.10;1.00;;;;;;5014736;28;20212;-58
2022/02/25 11:43:54;;;;;;;9.97;1.93;;;10.10;99.90;;;;;;5022605;28;20209;-57
2022/02/25 11:46:23;;;;;;;9.23;2.00;;;9.90;99.90;;;;;;5018435;28;20214;-58
2022/02/25 11:48:57;;;;;;;9.80;2.30;;;9.60;99.90;;;;;;5022519;28;20206;-58
2022/02/25 11:51:31;;;;;;;7.57;1.90;;;9.60;1.00;;;;;;5020372;28;20208;-58
2022/02/25 11:54:35;;;;;;;7.40;1.97;;;10.40;1.00;;;;;;5017381;28;20282;-57
2022/02/25 11:57:03;;;;;;;5.97;1.83;;;10.40;99.90;;;;;;5017730;28;20215;-58
2022/02/25 11:59:34;;;;;;;8.77;2.17;;;10.70;99.90;;;;;;5023031;28;20203;-57
2022/02/25 12:02:05;;;;;;;10.00;2.60;;;10.60;99.90;;;;;;5017886;28;20311;-58
2022/02/25 12:04:36;;;;;;;8.90;1.60;;;10.90;99.90;;;;;;5021947;28;20566;-57
2022/02/25 12:07:07;;;;;;;5.47;1.70;;;11.00;99.90;;;;;;5023157;28;20201;-56
2022/02/25 12:09:48;;;;;;;9.43;1.93;;;10.70;6.50;;;;;;5021281;28;20250;-57
2022/02/25 12:12:24;;;;;;;8.97;1.80;;;10.80;1.00;;;;;;5017244;28;20208;-57
2022/02/25 12:15:21;;;;;;;7.70;1.87;;;10.70;1.00;;;;;;5028044;28;20215;-56
2022/02/25 12:18:02;;;;;;;8.03;1.87;;;10.60;1.00;;;;;;5016708;28;20264;-56
2022/02/25 12:20:52;;;;;;;9.83;2.77;;;10.80;1.00;;;;;;5014517;28;20211;-56
2022/02/25 12:23:37;;;;;;;8.93;1.97;;;10.50;55.10;;;;;;5016940;28;20205;-56
2022/02/25 12:26:05;;;;;;;6.33;2.37;;;10.90;1.00;;;;;;5010208;28;20237;-57
2022/02/25 12:28:40;;;;;;;7.73;1.90;;;11.50;50.80;;;;;;5015927;28;20780;-57
2022/02/25 12:31:11;;;;;;;10.83;1.70;;;11.70;47.90;;;;;;5020715;28;20200;-59
2022/02/25 12:33:44;;;;;;;8.00;1.97;;;11.30;1.00;;;;;;5023449;28;20240;-57
2022/02/25 12:36:27;;;;;;;7.57;1.87;;;10.70;1.00;;;;;;5016785;28;20652;-57
2022/02/25 12:39:18;;;;;;;13.43;1.93;;;10.20;1.00;;;;;;5018940;28;20275;-58
2022/02/25 12:41:54;;;;;;;10.23;2.13;;;10.10;49.10;;;;;;5012976;28;20358;-57
2022/02/25 12:44:30;;;;;;;6.07;1.80;;;10.30;99.90;;;;;;5025362;28;20242;-56
2022/02/25 12:47:00;;;;;;;7.40;1.40;;;10.70;1.00;;;;;;5014634;28;20747;-57
2022/02/25 12:49:30;;;;;;;7.47;2.10;;;10.90;1.00;;;;;;5012426;28;20210;-57
2022/02/25 12:52:02;;;;;;;7.03;1.57;;;10.90;1.00;;;;;;5013287;28;20214;-57
2022/02/25 12:54:31;;;;;;;7.03;1.80;;;10.90;1.00;;;;;;5021004;28;20673;-57
2022/02/25 12:57:01;;;;;;;7.83;2.00;;;10.50;1.00;;;;;;5022638;28;20312;-57
2022/02/25 12:59:48;;;;;;;12.10;2.07;;;10.30;1.00;;;;;;5019040;28;20739;-57
2022/02/25 13:02:18;;;;;;;10.60;2.20;;;9.90;99.90;;;;;;5017601;28;20243;-57
2022/02/25 13:04:52;;;;;;;7.07;1.80;;;9.60;99.90;;;;;;5020235;28;20201;-56
2022/02/25 13:07:22;;;;;;;8.33;2.50;;;9.60;1.00;;;;;;5027060;28;20607;-56
2022/02/25 13:09:50;;;;;;;9.83;2.00;;;9.30;1.00;;;;;;5024908;28;20236;-57
2022/02/25 13:12:20;;;;;;;8.93;2.20;;;9.20;1.00;;;;;;5021119;28;20201;-57